Time;durP1;ratioP1;P1;durP2;ratioP2;P2;SDS_P1;SDS_P2;PMS_P1;PMS_P2;Temp;Humidity;BMP_temperature;BMP_pressure;BME280_temperature;BME280_humidity;BME280_pressure;Samples;Min_cycle;Max_cycle;Signal;HPM_P1;HPM_P2
2022/02/16 00:01:10;;;;;;;4.15;3.63;;;;;;;4.70;74.53;100078.94;5069129;28;20028;-22
2022/02/16 00:03:35;;;;;;;4.28;3.65;;;;;;;4.70;74.44;100065.88;5072665;28;20021;-22
2022/02/16 00:06:01;;;;;;;4.78;4.38;;;;;;;4.70;74.75;100068.47;5070103;28;20021;-22
2022/02/16 00:08:26;;;;;;;8.10;4.18;;;;;;;4.67;74.78;100065.84;5071853;28;21107;-22
2022/02/16 00:10:52;;;;;;;4.57;3.65;;;;;;;4.73;74.30;100065.91;5065746;28;20525;-22
2022/02/16 00:13:18;;;;;;;6.85;3.88;;;;;;;4.71;74.44;100062.38;5069992;28;20108;-22
2022/02/16 00:15:43;;;;;;;4.68;4.00;;;;;;;4.73;74.76;100054.56;5070606;28;20190;-22
2022/02/16 00:18:09;;;;;;;4.78;4.10;;;;;;;4.74;75.04;100057.19;5069954;28;20035;-22
2022/02/16 00:20:35;;;;;;;5.07;3.53;;;;;;;4.71;75.27;100046.72;5070790;28;20035;-22
2022/02/16 00:23:00;;;;;;;5.53;3.85;;;;;;;4.73;74.96;100045.00;5071880;28;20061;-22
2022/02/16 00:25:26;;;;;;;4.60;3.80;;;;;;;4.74;74.76;100041.50;5069718;28;20031;-22
2022/02/16 00:27:52;;;;;;;3.65;3.35;;;;;;;4.73;74.46;100045.00;5071659;28;20028;-22
2022/02/16 00:30:18;;;;;;;4.88;3.67;;;;;;;4.73;74.96;100041.50;5070252;28;20077;-22
2022/02/16 00:32:44;;;;;;;6.85;4.55;;;;;;;4.75;74.77;100045.00;5068792;28;20028;-22
2022/02/16 00:35:09;;;;;;;3.90;3.50;;;;;;;4.77;74.76;100040.63;5068146;28;20031;-22
2022/02/16 00:37:34;;;;;;;4.05;3.75;;;;;;;4.74;74.52;100031.06;5067117;28;20040;-22
2022/02/16 00:40:00;;;;;;;4.72;3.95;;;;;;;4.78;75.04;100037.19;5067764;28;20024;-22
2022/02/16 00:42:26;;;;;;;4.35;3.90;;;;;;;4.78;74.92;100036.31;5067756;28;20561;-22
2022/02/16 00:44:51;;;;;;;5.35;3.70;;;;;;;4.80;75.27;100029.34;5068438;28;20125;-22
2022/02/16 00:47:16;;;;;;;3.70;3.40;;;;;;;4.80;75.24;100030.22;5066800;28;20047;-22
2022/02/16 00:49:42;;;;;;;3.63;3.33;;;;;;;4.74;74.79;100010.16;5068285;28;20069;-22
2022/02/16 00:52:07;;;;;;;5.43;4.18;;;;;;;4.81;74.85;100012.81;5068246;28;20752;-22
2022/02/16 00:54:35;;;;;;;4.40;3.33;;;;;;;4.79;75.14;100017.13;5067084;28;20025;-22
2022/02/16 00:57:01;;;;;;;4.75;4.10;;;;;;;4.78;75.38;99998.00;5066867;28;20044;-22
2022/02/16 00:59:27;;;;;;;6.13;3.42;;;;;;;4.82;75.41;100009.31;5065224;28;20048;-22
2022/02/16 01:01:53;;;;;;;4.10;3.65;;;;;;;4.84;75.10;100004.97;5070377;28;21194;-22
2022/02/16 01:04:18;;;;;;;5.18;4.18;;;;;;;4.78;75.23;99994.50;5070840;28;20028;-22
2022/02/16 01:06:44;;;;;;;6.53;3.95;;;;;;;4.82;75.43;99991.91;5072207;28;20028;-22
2022/02/16 01:09:09;;;;;;;4.20;3.80;;;;;;;4.85;75.52;100001.50;5071468;28;20177;-22
2022/02/16 01:11:34;;;;;;;4.53;3.65;;;;;;;4.85;75.36;100004.09;5072520;28;20409;-22
2022/02/16 01:14:00;;;;;;;5.35;3.30;;;;;;;4.85;75.68;99988.44;5071023;28;20024;-22
2022/02/16 01:16:25;;;;;;;4.45;3.28;;;;;;;4.85;75.28;99985.81;5069314;28;20024;-22
2022/02/16 01:18:50;;;;;;;5.15;3.65;;;;;;;4.88;75.82;99985.84;5066287;28;20538;-22
2022/02/16 01:21:16;;;;;;;4.85;3.67;;;;;;;4.87;75.93;99976.25;5068259;28;20028;-22
2022/02/16 01:23:41;;;;;;;4.50;3.65;;;;;;;4.87;75.41;99973.66;5068406;28;20024;-22
2022/02/16 01:26:08;;;;;;;5.18;3.33;;;;;;;4.90;76.09;99978.00;5067511;28;20150;-22
2022/02/16 01:28:33;;;;;;;4.03;3.50;;;;;;;4.88;75.39;99965.78;5048361;28;20591;-22
2022/02/16 01:30:58;;;;;;;4.30;3.63;;;;;;;4.90;75.46;99972.78;5067049;28;20024;-22
2022/02/16 01:33:24;;;;;;;3.75;3.45;;;;;;;4.90;75.41;99968.41;5067275;28;20157;-22
2022/02/16 01:35:49;;;;;;;5.55;3.88;;;;;;;4.86;76.01;99954.47;5065939;28;20123;-22
2022/02/16 01:38:15;;;;;;;3.90;3.45;;;;;;;4.86;75.49;99950.97;5068033;28;20259;-22
2022/02/16 01:40:40;;;;;;;4.90;3.50;;;;;;;4.90;75.58;99947.50;5066731;28;20028;-22
2022/02/16 01:43:05;;;;;;;5.28;3.53;;;;;;;4.90;75.55;99951.88;5052118;28;20108;-22
2022/02/16 01:45:31;;;;;;;4.20;3.65;;;;;;;4.88;76.12;99938.78;5075179;28;20761;-22
2022/02/16 01:47:57;;;;;;;4.95;3.53;;;;;;;4.90;75.99;99933.56;5071952;28;20024;-22
2022/02/16 01:50:22;;;;;;;5.05;3.30;;;;;;;4.90;75.45;99926.59;5067781;28;20041;-22
2022/02/16 01:52:47;;;;;;;6.07;2.85;;;;;;;4.87;75.87;99916.16;5064744;28;20024;-22
2022/02/16 01:55:13;;;;;;;3.58;3.30;;;;;;;4.91;75.56;99911.78;5067938;28;20029;-22
2022/02/16 01:57:39;;;;;;;6.07;3.55;;;;;;;4.89;75.64;99906.56;5067786;28;20039;-22
2022/02/16 02:00:07;;;;;;;4.10;3.22;;;;;;;4.90;75.86;99895.22;5067977;28;20033;-22
2022/02/16 02:02:33;;;;;;;3.92;3.60;;;;;;;4.89;75.95;99888.28;5050361;28;20551;-22
2022/02/16 02:04:58;;;;;;;4.93;3.50;;;;;;;4.90;76.12;99890.00;5066607;28;20039;-22
2022/02/16 02:07:23;;;;;;;4.22;3.83;;;;;;;4.92;76.25;99887.41;5066987;28;20021;-22
2022/02/16 02:09:49;;;;;;;3.67;3.17;;;;;;;4.91;76.30;99878.72;5064093;28;20028;-22
2022/02/16 02:12:15;;;;;;;3.65;2.90;;;;;;;4.91;75.91;99869.97;5066033;28;20099;-22
2022/02/16 02:14:41;;;;;;;5.03;3.60;;;;;;;4.91;75.91;99875.22;5063428;28;20063;-22
2022/02/16 02:17:06;;;;;;;4.15;3.42;;;;;;;4.92;76.31;99871.72;5068621;28;20024;-22
2022/02/16 02:19:32;;;;;;;3.95;3.40;;;;;;;4.92;76.50;99861.25;5069873;28;20031;-22
2022/02/16 02:21:57;;;;;;;5.00;3.97;;;;;;;4.90;76.25;99858.66;5069471;28;20032;-22
2022/02/16 02:24:22;;;;;;;4.75;3.25;;;;;;;4.88;76.32;99856.03;5066459;28;20024;-22
2022/02/16 02:26:48;;;;;;;5.88;4.03;;;;;;;4.91;75.83;99860.41;5068340;28;20072;-22
2022/02/16 02:29:15;;;;;;;3.38;3.08;;;;;;;4.92;76.38;99838.63;5068849;28;20036;-22
2022/02/16 02:31:40;;;;;;;3.42;3.13;;;;;;;4.92;76.32;99851.69;5070861;28;20074;-22
2022/02/16 02:34:06;;;;;;;3.42;3.13;;;;;;;4.90;76.24;99837.75;5068928;28;20032;-22
2022/02/16 02:36:31;;;;;;;4.45;3.40;;;;;;;4.91;76.37;99818.59;5066254;28;20028;-22
2022/02/16 02:38:57;;;;;;;4.72;3.47;;;;;;;4.94;76.28;99830.78;5072757;28;20072;-22
2022/02/16 02:41:24;;;;;;;5.97;3.33;;;;;;;4.94;76.83;99822.94;5071202;28;20554;-22
2022/02/16 02:43:50;;;;;;;5.95;3.70;;;;;;;4.93;76.80;99816.84;5071899;28;20032;-22
2022/02/16 02:46:16;;;;;;;3.30;3.00;;;;;;;4.95;76.63;99820.34;5074781;28;20031;-22
2022/02/16 02:48:42;;;;;;;4.60;3.60;;;;;;;4.96;76.52;99815.97;5072791;28;20040;-22
2022/02/16 02:51:07;;;;;;;4.82;3.08;;;;;;;4.95;76.49;99815.13;5070520;28;20031;-22
2022/02/16 02:53:34;;;;;;;4.38;2.90;;;;;;;4.96;76.69;99803.78;5070402;28;20028;-22
2022/02/16 02:56:00;;;;;;;2.92;2.72;;;;;;;4.94;76.41;99802.03;5069501;28;20033;-22
2022/02/16 02:58:25;;;;;;;3.45;3.15;;;;;;;4.96;76.63;99803.78;5070464;28;20102;-22
2022/02/16 03:00:51;;;;;;;2.92;2.72;;;;;;;4.97;76.54;99808.13;5067193;28;20107;-22
2022/02/16 03:03:16;;;;;;;5.88;3.10;;;;;;;4.94;77.25;99805.50;5064466;28;20474;-22
2022/02/16 03:05:41;;;;;;;3.42;3.08;;;;;;;4.99;77.15;99800.28;5065779;28;20038;-22
2022/02/16 03:08:07;;;;;;;2.63;2.40;;;;;;;4.97;76.67;99800.28;5069671;28;20392;-22
2022/02/16 03:10:32;;;;;;;6.50;3.15;;;;;;;4.99;76.95;99800.28;5059302;28;20055;-22
2022/02/16 03:12:58;;;;;;;3.10;2.42;;;;;;;5.00;77.08;99802.03;5071031;28;20539;-22
2022/02/16 03:15:23;;;;;;;5.18;2.83;;;;;;;4.99;76.21;99795.94;5066151;28;20012;-22
2022/02/16 03:17:49;;;;;;;3.28;2.80;;;;;;;4.99;76.83;99787.22;5071397;28;20031;-22
2022/02/16 03:20:15;;;;;;;6.80;3.08;;;;;;;5.01;76.59;99788.97;5057958;28;20028;-22
2022/02/16 03:22:40;;;;;;;3.60;2.78;;;;;;;5.02;76.88;99789.84;5071525;28;20039;-22
2022/02/16 03:25:07;;;;;;;3.10;2.80;;;;;;;5.03;77.23;99777.66;5073553;28;20047;-22
2022/02/16 03:27:33;;;;;;;2.80;2.60;;;;;;;5.03;76.74;99781.13;5074349;28;20040;-22
2022/02/16 03:30:00;;;;;;;3.17;2.88;;;;;;;5.01;76.89;99772.44;5071456;28;20021;-22
2022/02/16 03:32:25;;;;;;;3.08;2.67;;;;;;;5.04;76.50;99792.47;5070885;28;20145;-22
2022/02/16 03:34:50;;;;;;;2.53;2.33;;;;;;;5.01;76.90;99768.06;5053635;28;20039;-22
2022/02/16 03:37:16;;;;;;;2.80;2.35;;;;;;;5.05;77.09;99773.28;5071247;28;20024;-22
2022/02/16 03:39:41;;;;;;;4.28;3.15;;;;;;;5.06;76.77;99769.78;5072324;28;20453;-22
2022/02/16 03:42:07;;;;;;;2.28;2.08;;;;;;;5.05;76.74;99750.63;5073480;28;21843;-22
2022/02/16 03:44:32;;;;;;;4.03;2.38;;;;;;;5.08;77.33;99757.59;5067457;28;20044;-22
2022/02/16 03:46:58;;;;;;;2.30;2.15;;;;;;;5.04;76.74;99753.25;5068530;28;20016;-22
2022/02/16 03:49:24;;;;;;;3.17;2.67;;;;;;;5.08;76.73;99752.38;5067784;28;20111;-22
2022/02/16 03:51:50;;;;;;;2.33;2.13;;;;;;;5.08;77.01;99749.75;5072116;28;20032;-22
2022/02/16 03:54:16;;;;;;;2.50;2.30;;;;;;;5.08;76.41;99749.75;5075166;28;20024;-22
2022/02/16 03:56:41;;;;;;;2.25;2.13;;;;;;;5.09;77.10;99751.50;5051236;28;20028;-22
2022/02/16 03:59:06;;;;;;;2.20;2.03;;;;;;;5.07;76.99;99753.25;5064935;28;20369;-22
2022/02/16 04:01:33;;;;;;;2.53;2.33;;;;;;;5.12;76.86;99748.88;5068893;28;20065;-22
2022/02/16 04:03:59;;;;;;;2.03;1.90;;;;;;;5.07;77.40;99738.41;5074718;28;20115;-22
2022/02/16 04:06:24;;;;;;;2.78;2.58;;;;;;;5.07;76.62;99741.03;5073671;28;20537;-22
2022/02/16 04:08:50;;;;;;;2.60;2.40;;;;;;;5.10;77.00;99734.97;5067268;28;20035;-22
2022/02/16 04:11:17;;;;;;;3.58;1.90;;;;;;;5.12;76.21;99746.25;5069805;28;20033;-22
2022/02/16 04:13:43;;;;;;;1.80;1.70;;;;;;;5.14;76.91;99744.53;5069785;28;20024;-22
2022/02/16 04:16:08;;;;;;;2.30;1.90;;;;;;;5.12;76.56;99744.53;5071500;28;20024;-22
2022/02/16 04:18:34;;;;;;;2.00;1.90;;;;;;;5.12;76.85;99734.06;5070295;28;20032;-22
2022/02/16 04:20:59;;;;;;;2.15;2.05;;;;;;;5.14;76.24;99740.16;5071824;28;20438;-22
2022/02/16 04:23:24;;;;;;;3.55;2.58;;;;;;;5.15;76.74;99735.81;5066912;28;20028;-22
2022/02/16 04:25:50;;;;;;;3.55;2.20;;;;;;;5.16;76.97;99728.84;5073323;28;20032;-22
2022/02/16 04:28:15;;;;;;;2.25;2.05;;;;;;;5.11;76.42;99726.25;5072474;28;20032;-22
2022/02/16 04:30:40;;;;;;;2.30;2.10;;;;;;;5.16;76.39;99734.94;5070467;28;20033;-22
2022/02/16 04:33:06;;;;;;;2.33;2.13;;;;;;;5.16;76.97;99721.84;5070162;28;20498;-22
2022/02/16 04:35:32;;;;;;;1.85;1.75;;;;;;;5.17;76.37;99735.81;5071653;28;20119;-22
2022/02/16 04:37:57;;;;;;;1.98;1.83;;;;;;;5.14;76.83;99721.00;5071794;28;20169;-22
2022/02/16 04:40:23;;;;;;;2.40;2.17;;;;;;;5.15;76.50;99722.75;5073285;28;20386;-22
2022/02/16 04:42:48;;;;;;;3.65;1.90;;;;;;;5.16;77.13;99724.47;5067734;28;20027;-22
2022/02/16 04:45:14;;;;;;;2.75;2.55;;;;;;;5.18;76.86;99722.75;5068972;28;20027;-22
2022/02/16 04:47:40;;;;;;;2.30;2.10;;;;;;;5.17;76.46;99715.75;5071897;28;20055;-22
2022/02/16 04:50:07;;;;;;;2.25;1.70;;;;;;;5.20;76.92;99731.44;5071306;28;20394;-22
2022/02/16 04:52:36;;;;;;;1.80;1.70;;;;;;;5.19;76.66;99716.63;5076452;28;20047;-22
2022/02/16 04:55:06;;;;;;;2.80;2.13;;;;;;;5.19;76.70;99719.25;5073457;28;20438;-22
2022/02/16 04:57:32;;;;;;;2.30;2.10;;;;;;;5.21;77.27;99716.63;5053312;28;20027;-22
2022/02/16 04:59:58;;;;;;;2.30;2.10;;;;;;;5.20;77.34;99715.75;5071092;28;20032;-22
2022/02/16 05:02:27;;;;;;;1.90;1.80;;;;;;;5.18;77.13;99704.44;5070580;28;20032;-22
2022/02/16 05:04:53;;;;;;;1.80;1.70;;;;;;;5.20;76.69;99705.28;5073966;28;20039;-22
2022/02/16 05:07:18;;;;;;;2.05;1.92;;;;;;;5.19;76.88;99703.56;5070607;28;20019;-22
2022/02/16 05:09:44;;;;;;;2.80;1.90;;;;;;;5.18;77.07;99695.72;5070591;28;20541;-22
2022/02/16 05:12:09;;;;;;;1.70;1.60;;;;;;;5.18;77.26;99704.44;5070060;28;20036;-22
2022/02/16 05:14:34;;;;;;;2.55;2.00;;;;;;;5.20;77.41;99700.06;5069596;28;20077;-22
2022/02/16 05:17:00;;;;;;;2.17;1.95;;;;;;;5.20;77.01;99696.59;5073120;28;20072;-22
2022/02/16 05:19:25;;;;;;;3.47;2.10;;;;;;;5.20;77.22;99694.84;5070448;28;20027;-22
2022/02/16 05:21:51;;;;;;;2.20;2.00;;;;;;;5.19;77.16;99693.09;5071971;28;20035;-22
2022/02/16 05:24:16;;;;;;;2.67;2.42;;;;;;;5.19;77.21;99693.09;5071090;28;20089;-22
2022/02/16 05:26:42;;;;;;;1.75;1.65;;;;;;;5.19;77.46;99681.75;5074732;28;20493;-22
2022/02/16 05:29:07;;;;;;;1.95;1.85;;;;;;;5.19;77.31;99693.09;5069265;28;20063;-22
2022/02/16 05:31:33;;;;;;;1.90;1.80;;;;;;;5.19;77.28;99687.00;5069119;28;20020;-22
2022/02/16 05:33:59;;;;;;;2.47;1.92;;;;;;;5.19;77.33;99687.00;5065573;28;20020;-22
2022/02/16 05:36:24;;;;;;;2.08;1.90;;;;;;;5.20;77.48;99675.69;5071670;28;20119;-22
2022/02/16 05:38:50;;;;;;;2.10;1.95;;;;;;;5.19;77.37;99671.31;5070171;28;20074;-22
2022/02/16 05:41:15;;;;;;;2.30;2.00;;;;;;;5.14;77.35;99658.28;5074533;28;20024;-22
2022/02/16 05:43:41;;;;;;;1.75;1.65;;;;;;;5.17;77.12;99668.69;5071394;28;20035;-22
2022/02/16 05:46:06;;;;;;;1.70;1.60;;;;;;;5.17;77.84;99673.06;5072293;28;20021;-22
2022/02/16 05:48:31;;;;;;;2.25;1.80;;;;;;;5.18;77.61;99675.69;5071922;28;20489;-22
2022/02/16 05:50:57;;;;;;;1.77;1.67;;;;;;;5.14;77.49;99659.13;5067687;28;20650;-22
2022/02/16 05:53:22;;;;;;;2.20;2.00;;;;;;;5.16;78.27;99659.13;5073866;28;20510;-22
2022/02/16 05:55:48;;;;;;;1.65;1.55;;;;;;;5.18;78.40;99660.00;5067402;28;20046;-22
2022/02/16 05:58:13;;;;;;;1.77;1.67;;;;;;;5.15;77.99;99665.22;5067548;28;20031;-22
2022/02/16 06:00:38;;;;;;;3.42;2.42;;;;;;;5.17;77.81;99654.78;5064961;28;20682;-22
2022/02/16 06:03:04;;;;;;;2.42;2.13;;;;;;;5.14;78.11;99656.50;5068288;28;20057;-22
2022/02/16 06:05:31;;;;;;;2.17;1.98;;;;;;;5.14;78.02;99647.81;5065748;28;20152;-22
2022/02/16 06:07:56;;;;;;;1.80;1.70;;;;;;;5.10;77.89;99638.25;5067171;28;20067;-22
2022/02/16 06:10:21;;;;;;;1.73;1.63;;;;;;;5.12;77.89;99632.13;5067654;28;20032;-22
2022/02/16 06:12:47;;;;;;;1.60;1.50;;;;;;;5.13;78.11;99635.59;5066997;28;20363;-22
2022/02/16 06:15:12;;;;;;;2.50;2.30;;;;;;;5.13;78.35;99630.38;5074558;28;20017;-22
2022/02/16 06:17:38;;;;;;;1.70;1.55;;;;;;;5.12;77.91;99628.63;5069815;28;20585;-22
2022/02/16 06:20:04;;;;;;;1.88;1.77;;;;;;;5.11;77.82;99622.53;5070791;28;20528;-22
2022/02/16 06:22:29;;;;;;;1.50;1.40;;;;;;;5.11;78.37;99611.22;5070775;28;20038;-22
2022/02/16 06:24:55;;;;;;;1.73;1.50;;;;;;;5.12;78.52;99612.94;5079921;28;20370;-22
2022/02/16 06:27:22;;;;;;;1.80;1.70;;;;;;;5.12;78.35;99615.56;5079680;28;20043;-22
2022/02/16 06:29:47;;;;;;;2.90;1.52;;;;;;;5.10;78.88;99614.72;5073319;28;20024;-22
2022/02/16 06:32:13;;;;;;;1.60;1.50;;;;;;;5.10;78.67;99612.09;5081805;28;20087;-22
2022/02/16 06:34:38;;;;;;;1.65;1.55;;;;;;;5.10;78.64;99609.50;5068351;28;20024;-22
2022/02/16 06:37:04;;;;;;;2.08;1.60;;;;;;;5.09;78.97;99592.06;5070900;28;20027;-22
2022/02/16 06:39:29;;;;;;;1.92;1.73;;;;;;;5.08;78.88;99595.53;5066731;28;20024;-22
2022/02/16 06:41:54;;;;;;;2.00;1.40;;;;;;;5.07;78.77;99589.44;5070318;28;20065;-22
2022/02/16 06:44:20;;;;;;;1.63;1.52;;;;;;;5.05;78.75;99574.63;5070172;28;20024;-22
2022/02/16 06:46:47;;;;;;;1.40;1.30;;;;;;;5.04;78.94;99584.25;5070551;28;20032;-22
2022/02/16 06:49:12;;;;;;;1.48;1.38;;;;;;;5.05;78.56;99577.25;5069133;28;20024;-22
2022/02/16 06:51:38;;;;;;;1.48;1.38;;;;;;;5.06;78.71;99577.25;5074008;28;20032;-22
2022/02/16 06:54:03;;;;;;;1.40;1.30;;;;;;;5.05;78.74;99574.63;5068782;28;20119;-22
2022/02/16 06:56:30;;;;;;;1.10;1.10;;;;;;;5.03;78.81;99573.81;5070082;28;20390;-22
2022/02/16 06:58:56;;;;;;;1.48;1.38;;;;;;;5.05;78.77;99572.91;5073023;28;20028;-22
2022/02/16 07:01:21;;;;;;;1.10;1.10;;;;;;;5.04;79.03;99573.78;5072398;28;20043;-22
2022/02/16 07:03:47;;;;;;;1.70;1.10;;;;;;;5.03;78.82;99576.41;5069634;28;20040;-22
2022/02/16 07:06:12;;;;;;;1.00;1.00;;;;;;;5.04;78.82;99578.13;5080589;28;20073;-22
2022/02/16 07:08:38;;;;;;;1.05;1.05;;;;;;;5.04;79.09;99575.53;5077244;28;20115;-22
2022/02/16 07:11:03;;;;;;;1.10;1.10;;;;;;;5.04;78.66;99567.69;5078159;28;20044;-22
2022/02/16 07:13:29;;;;;;;1.50;1.40;;;;;;;5.03;79.06;99558.97;5060198;28;20780;-22
2022/02/16 07:15:54;;;;;;;0.93;0.90;;;;;;;5.03;78.93;99556.34;5070596;28;20058;-22
2022/02/16 07:18:20;;;;;;;1.20;1.20;;;;;;;5.03;79.11;99552.88;5073140;28;20093;-22
2022/02/16 07:20:45;;;;;;;1.23;1.15;;;;;;;5.03;79.43;99543.28;5071269;28;20539;-22
2022/02/16 07:23:11;;;;;;;1.17;1.10;;;;;;;5.03;79.08;99542.44;5068931;28;20385;-22
2022/02/16 07:25:36;;;;;;;1.00;1.00;;;;;;;5.02;78.98;99538.94;5077302;28;20486;-22
2022/02/16 07:28:02;;;;;;;1.10;1.00;;;;;;;5.01;79.01;99543.28;5079094;28;20036;-22
2022/02/16 07:30:28;;;;;;;1.00;1.00;;;;;;;5.03;79.24;99537.22;5078161;28;20382;-22
2022/02/16 07:32:53;;;;;;;1.45;1.35;;;;;;;5.03;78.61;99529.38;5059984;28;20486;-22
2022/02/16 07:35:19;;;;;;;1.05;1.05;;;;;;;5.01;78.96;99511.94;5075690;28;20028;-22
2022/02/16 07:37:44;;;;;;;0.93;0.93;;;;;;;5.02;79.29;99507.59;5078063;28;20147;-22
2022/02/16 07:40:10;;;;;;;1.10;1.10;;;;;;;5.03;79.54;99503.22;5078593;28;20384;-22
2022/02/16 07:42:35;;;;;;;1.48;1.20;;;;;;;5.02;79.31;99494.50;5076898;28;20524;-22
2022/02/16 07:45:03;;;;;;;0.95;0.95;;;;;;;5.03;79.07;99488.41;5075944;28;20028;-22
2022/02/16 07:47:29;;;;;;;1.38;1.25;;;;;;;5.03;78.98;99479.72;5079777;28;20028;-22
2022/02/16 07:49:54;;;;;;;0.88;0.88;;;;;;;5.04;79.11;99484.06;5073220;28;20536;-22
2022/02/16 07:52:20;;;;;;;0.85;0.85;;;;;;;5.03;79.14;99483.16;5075113;28;20028;-22
2022/02/16 07:54:45;;;;;;;1.20;1.10;;;;;;;5.03;78.55;99480.56;5065520;28;20255;-22
2022/02/16 07:57:11;;;;;;;1.70;1.10;;;;;;;5.05;79.07;99481.44;5066097;28;20059;-22
2022/02/16 07:59:37;;;;;;;1.85;0.93;;;;;;;5.05;78.82;99480.56;5067546;28;20028;-22
2022/02/16 08:02:05;;;;;;;0.80;0.80;;;;;;;5.05;78.67;99455.31;5068464;28;20020;-22
2022/02/16 08:04:31;;;;;;;1.30;1.13;;;;;;;5.07;79.15;99457.91;5048523;28;20129;-22
2022/02/16 08:06:57;;;;;;;1.10;0.90;;;;;;;5.07;79.25;99452.69;5068922;28;20751;-22
2022/02/16 08:09:22;;;;;;;1.50;0.90;;;;;;;5.08;79.30;99457.03;5069611;28;20029;-22
2022/02/16 08:11:48;;;;;;;0.90;0.90;;;;;;;5.06;79.05;99451.81;5065055;28;20390;-22
2022/02/16 08:14:14;;;;;;;0.80;0.80;;;;;;;5.08;79.12;99470.09;5066255;28;20016;-22
2022/02/16 08:16:40;;;;;;;1.10;1.00;;;;;;;5.10;79.13;99473.56;5059628;28;20024;-22
2022/02/16 08:19:07;;;;;;;1.02;0.90;;;;;;;5.12;78.75;99453.50;5067560;28;20047;-22
2022/02/16 08:21:33;;;;;;;0.90;0.90;;;;;;;5.13;78.79;99442.16;5067546;28;20892;-22
2022/02/16 08:23:59;;;;;;;0.80;0.80;;;;;;;5.12;78.93;99445.66;5069682;28;20398;-22
2022/02/16 08:26:25;;;;;;;0.98;0.88;;;;;;;5.14;79.30;99454.38;5082896;28;20043;-22
2022/02/16 08:28:50;;;;;;;0.80;0.80;;;;;;;5.17;79.09;99458.72;5080087;28;20128;-22
2022/02/16 08:31:15;;;;;;;0.88;0.70;;;;;;;5.17;78.96;99446.50;5073667;28;20556;-22
2022/02/16 08:33:41;;;;;;;1.05;0.82;;;;;;;5.18;79.28;99439.53;5076466;28;20429;-22
2022/02/16 08:36:07;;;;;;;0.73;0.73;;;;;;;5.18;79.08;99427.34;5069018;28;20029;-22
2022/02/16 08:38:33;;;;;;;0.80;0.80;;;;;;;5.16;79.18;99415.16;5070510;28;20028;-22
2022/02/16 08:40:58;;;;;;;0.73;0.73;;;;;;;5.20;79.30;99414.25;5067553;28;20029;-22
2022/02/16 08:43:24;;;;;;;0.77;0.77;;;;;;;5.18;79.25;99389.88;5070034;28;20115;-22
2022/02/16 08:45:50;;;;;;;0.80;0.80;;;;;;;5.24;78.99;99392.44;5070049;28;20044;-22
2022/02/16 08:48:15;;;;;;;0.80;0.80;;;;;;;5.24;79.98;99388.06;5067766;28;20056;-22
2022/02/16 08:50:40;;;;;;;0.80;0.80;;;;;;;5.25;79.10;99381.97;5068791;28;20687;-22
2022/02/16 08:53:06;;;;;;;1.10;0.90;;;;;;;5.26;79.51;99391.53;5068539;28;20024;-22
2022/02/16 08:55:32;;;;;;;0.88;0.88;;;;;;;5.23;79.44;99377.63;5066646;28;20032;-22
2022/02/16 08:57:57;;;;;;;1.45;1.00;;;;;;;5.29;80.00;99385.41;5067804;28;20021;-22
2022/02/16 09:00:23;;;;;;;0.70;0.70;;;;;;;5.31;79.25;99369.72;5071739;28;20056;-22
2022/02/16 09:02:49;;;;;;;1.13;0.93;;;;;;;5.31;79.64;99368.00;5066651;28;20094;-22
2022/02/16 09:05:14;;;;;;;0.90;0.90;;;;;;;5.34;79.86;99362.69;5070265;28;20031;-22
2022/02/16 09:07:40;;;;;;;0.80;0.80;;;;;;;5.34;79.58;99347.00;5069853;28;20036;-22
2022/02/16 09:10:08;;;;;;;0.82;0.80;;;;;;;5.37;79.71;99340.91;5069555;28;20036;-22
2022/02/16 09:12:34;;;;;;;1.00;0.80;;;;;;;5.38;79.81;99338.25;5065894;28;20035;-22
2022/02/16 09:15:00;;;;;;;0.98;0.88;;;;;;;5.41;79.43;99331.28;5069410;28;20021;-23
2022/02/16 09:17:25;;;;;;;0.68;0.68;;;;;;;5.40;79.39;99327.78;5069838;28;20043;-23
2022/02/16 09:19:55;;;;;;;1.13;0.90;;;;;;;5.44;79.87;99316.41;5069192;28;20032;-22
2022/02/16 09:22:22;;;;;;;0.75;0.75;;;;;;;5.45;79.94;99318.16;5065556;28;20371;-23
2022/02/16 09:24:48;;;;;;;1.00;0.82;;;;;;;5.47;79.25;99313.78;5068695;28;20440;-22
2022/02/16 09:27:15;;;;;;;1.73;0.90;;;;;;;5.48;79.33;99312.91;5074898;28;20056;-22
2022/02/16 09:29:41;;;;;;;0.80;0.80;;;;;;;5.48;79.72;99297.22;5068484;28;20024;-22
2022/02/16 09:32:06;;;;;;;0.98;0.80;;;;;;;5.52;79.76;99293.69;5069718;28;20034;-22
2022/02/16 09:34:32;;;;;;;0.90;0.90;;;;;;;5.53;79.94;99278.84;5072192;28;20107;-22
2022/02/16 09:36:58;;;;;;;0.60;0.60;;;;;;;5.55;79.89;99271.00;5067536;28;20017;-23
2022/02/16 09:39:23;;;;;;;0.85;0.85;;;;;;;5.57;79.45;99280.53;5069404;28;20056;-22
2022/02/16 09:41:49;;;;;;;0.73;0.65;;;;;;;5.58;79.82;99276.19;5062833;28;20497;-23
2022/02/16 09:44:18;;;;;;;0.90;0.90;;;;;;;5.61;79.44;99268.31;5070995;28;20070;-22
2022/02/16 09:46:43;;;;;;;0.82;0.82;;;;;;;5.61;79.60;99265.69;5079625;28;20035;-22
2022/02/16 09:49:12;;;;;;;0.80;0.80;;;;;;;5.63;79.46;99264.78;5078135;28;20032;-23
2022/02/16 09:51:38;;;;;;;0.80;0.80;;;;;;;5.65;79.18;99273.50;5078881;28;20059;-23
2022/02/16 09:54:03;;;;;;;1.10;0.75;;;;;;;5.67;79.89;99270.00;5076498;28;20051;-22
2022/02/16 09:56:29;;;;;;;0.70;0.70;;;;;;;5.68;79.50;99272.59;5075785;28;20127;-22
2022/02/16 09:58:54;;;;;;;0.75;0.75;;;;;;;5.70;79.66;99260.34;5077784;28;20033;-21
2022/02/16 10:01:21;;;;;;;0.70;0.70;;;;;;;5.72;79.77;99265.56;5075517;28;20020;-23
2022/02/16 10:04:05;;;;;;;0.80;0.80;;;;;;;5.73;79.41;99275.13;5075570;28;20119;-23
2022/02/16 10:06:42;;;;;;;0.90;0.90;;;;;;;5.74;79.49;99275.13;5072486;28;20023;-23
2022/02/16 10:09:08;;;;;;;0.90;0.90;;;;;;;5.77;79.13;99266.41;5074692;28;20123;-23
2022/02/16 10:11:34;;;;;;;1.20;1.10;;;;;;;5.77;79.42;99256.78;5059472;28;20036;-23
2022/02/16 10:14:20;;;;;;;0.93;0.93;;;;;;;5.82;78.82;99258.47;5074854;28;20074;-23
2022/02/16 10:16:47;;;;;;;1.20;1.10;;;;;;;5.84;79.45;99248.88;5074452;28;20035;-19
2022/02/16 10:19:12;;;;;;;1.40;1.30;;;;;;;5.84;79.71;99241.84;5075575;28;20062;-23
2022/02/16 10:21:38;;;;;;;1.13;0.90;;;;;;;5.86;79.04;99232.25;5075660;28;20035;-22
2022/02/16 10:24:04;;;;;;;1.00;1.00;;;;;;;5.89;79.51;99219.13;5075662;28;20029;-22
2022/02/16 10:26:50;;;;;;;1.15;1.05;;;;;;;5.91;79.14;99200.78;5074465;28;20107;-22
2022/02/16 10:29:37;;;;;;;1.27;1.17;;;;;;;5.91;79.65;99174.63;5077937;28;20086;-23
2022/02/16 10:32:03;;;;;;;1.40;1.30;;;;;;;5.96;79.63;99185.00;5074196;28;20023;-22
2022/02/16 10:34:51;;;;;;;1.23;1.13;;;;;;;6.00;79.42;99179.72;5079811;28;20180;-22
2022/02/16 10:37:21;;;;;;;1.25;1.15;;;;;;;6.02;80.06;99164.88;5075715;28;20065;-22
2022/02/16 10:40:10;;;;;;;1.73;1.42;;;;;;;6.05;79.43;99169.22;5073311;28;20424;-22
2022/02/16 10:42:37;;;;;;;1.40;1.30;;;;;;;6.09;79.71;99159.56;5073456;28;20040;-23
2022/02/16 10:45:11;;;;;;;1.27;1.23;;;;;;;6.13;79.89;99161.22;5079132;28;20036;-22
2022/02/16 10:48:01;;;;;;;1.58;1.33;;;;;;;6.18;80.11;99154.19;5073063;28;20055;-22
2022/02/16 10:50:33;;;;;;;2.60;1.40;;;;;;;6.20;80.18;99128.84;5075540;28;20090;-22
2022/02/16 10:53:04;;;;;;;1.23;1.13;;;;;;;6.26;80.35;99138.34;5068540;28;20044;-22
2022/02/16 10:55:43;;;;;;;1.52;1.20;;;;;;;6.27;80.29;99125.22;5072916;28;20028;-22
2022/02/16 10:58:18;;;;;;;1.35;1.25;;;;;;;6.32;80.27;99105.97;5084254;28;20512;-22
2022/02/16 11:00:45;;;;;;;1.00;0.90;;;;;;;6.37;80.69;99125.09;5071906;28;20367;-23
2022/02/16 11:03:15;;;;;;;1.27;1.17;;;;;;;6.39;80.36;99129.41;5082642;28;20023;-23
2022/02/16 11:05:44;;;;;;;1.50;1.40;;;;;;;6.43;80.83;99113.66;5083835;28;20085;-23
2022/02/16 11:08:13;;;;;;;1.27;1.17;;;;;;;6.46;80.71;99129.28;5082571;28;20359;-23
2022/02/16 11:10:44;;;;;;;1.10;1.10;;;;;;;6.50;80.85;99142.31;5085412;28;20056;-21
2022/02/16 11:13:10;;;;;;;1.00;1.00;;;;;;;6.52;80.47;99114.34;5072348;28;20485;-22
2022/02/16 11:15:37;;;;;;;1.08;1.02;;;;;;;6.54;80.69;99112.56;5073573;28;20111;-23
2022/02/16 11:18:20;;;;;;;1.35;1.00;;;;;;;6.58;80.33;99109.91;5070629;28;20021;-23
2022/02/16 11:21:05;;;;;;;2.97;1.05;;;;;;;6.63;80.79;99106.28;5070366;28;20699;-23
2022/02/16 11:23:37;;;;;;;0.90;0.90;;;;;;;6.67;80.65;99086.16;5071956;28;20474;-22
2022/02/16 11:26:22;;;;;;;1.02;1.00;;;;;;;6.72;81.29;99089.56;5069411;28;20032;-23
2022/02/16 11:28:48;;;;;;;0.98;0.88;;;;;;;6.77;81.39;99092.94;5064668;28;20024;-23
2022/02/16 11:31:36;;;;;;;1.08;0.98;;;;;;;6.78;81.27;99068.47;5071272;28;20134;-22
2022/02/16 11:34:23;;;;;;;0.80;0.80;;;;;;;6.85;81.41;99087.56;5069626;28;20048;-23
2022/02/16 11:36:57;;;;;;;0.60;0.60;;;;;;;6.91;81.61;99083.97;5069166;28;20021;-22
2022/02/16 11:39:41;;;;;;;0.80;0.80;;;;;;;6.97;81.85;99075.97;5071016;28;20059;-23